createdAt,value
2022-11-22T00:01:04.329Z,100138.16
2022-11-22T00:03:31.833Z,100139.59
2022-11-22T00:06:00.152Z,100132.16
2022-11-22T00:08:29.112Z,100141.88
2022-11-22T00:10:56.042Z,100137.34
2022-11-22T00:13:23.496Z,100140.44
2022-11-22T00:15:58.348Z,100138.03
2022-11-22T00:18:31.101Z,100140.28
2022-11-22T00:21:06.538Z,100132.50
2022-11-22T00:23:34.287Z,100141.47
2022-11-22T00:26:01.326Z,100148.41
2022-11-22T00:28:28.636Z,100139.78
2022-11-22T00:30:55.500Z,100126.72
2022-11-22T00:33:22.846Z,100125.06
2022-11-22T00:35:49.689Z,100131.28
2022-11-22T00:38:18.300Z,100125.16
2022-11-22T00:40:45.178Z,100125.03
2022-11-22T00:43:12.394Z,100132.47
2022-11-22T00:45:41.507Z,100133.81
2022-11-22T00:48:08.673Z,100132.09
2022-11-22T00:50:35.693Z,100132.03
2022-11-22T00:53:05.904Z,100127.13
2022-11-22T00:55:36.897Z,100134.41
2022-11-22T00:58:04.051Z,100130.50
2022-11-22T01:00:31.022Z,100134.75
2022-11-22T01:03:00.708Z,100128.88
2022-11-22T01:05:27.767Z,100129.22
2022-11-22T01:07:57.644Z,100136.16
2022-11-22T01:10:24.805Z,100132.81
2022-11-22T01:12:53.688Z,100134.56
2022-11-22T01:15:20.712Z,100148.06
2022-11-22T01:17:50.359Z,100140.06
2022-11-22T01:20:18.430Z,100146.38
2022-11-22T01:22:45.854Z,100149.25
2022-11-22T01:25:17.732Z,100139.16
2022-11-22T01:27:44.925Z,100142.84
2022-11-22T01:30:13.902Z,100142.75
2022-11-22T01:32:41.081Z,100140.94
2022-11-22T01:35:10.574Z,100143.56
2022-11-22T01:37:38.048Z,100147.56
2022-11-22T01:40:06.972Z,100143.84
2022-11-22T01:42:46.458Z,100145.34
2022-11-22T01:45:39.685Z,100148.19
2022-11-22T01:48:15.820Z,100147.34
2022-11-22T01:50:47.117Z,100145.44
2022-11-22T01:53:17.820Z,100158.72
2022-11-22T01:55:45.582Z,100150.28
2022-11-22T01:58:15.194Z,100163.97
2022-11-22T02:00:46.934Z,100149.75
2022-11-22T02:03:16.036Z,100150.69
2022-11-22T02:05:48.367Z,100150.28
2022-11-22T02:08:25.514Z,100157.13
2022-11-22T02:10:54.694Z,100155.94
2022-11-22T02:13:23.703Z,100151.03
2022-11-22T02:15:52.522Z,100151.53
2022-11-22T02:18:19.690Z,100150.50
2022-11-22T02:20:46.720Z,100152.19
2022-11-22T02:23:21.839Z,100148.91
2022-11-22T02:25:52.945Z,100150.81
2022-11-22T02:28:20.120Z,100156.06
2022-11-22T02:30:47.251Z,100147.56
2022-11-22T02:33:14.681Z,100151.16
2022-11-22T02:35:42.117Z,100144.94
2022-11-22T02:38:12.948Z,100138.22
2022-11-22T02:40:45.326Z,100140.94
2022-11-22T02:43:18.707Z,100142.50
2022-11-22T02:45:45.848Z,100133.16
2022-11-22T02:48:15.024Z,100130.13
2022-11-22T02:50:42.007Z,100130.63
2022-11-22T02:53:10.316Z,100122.75
2022-11-22T02:55:37.758Z,100124.25
2022-11-22T02:58:05.951Z,100121.28
2022-11-22T03:00:34.749Z,100111.41
2022-11-22T03:03:01.827Z,100109.09
2022-11-22T03:05:28.920Z,100109.09
2022-11-22T03:07:56.080Z,100111.72
2022-11-22T03:10:23.144Z,100108.88
2022-11-22T03:12:50.619Z,100111.41
2022-11-22T03:15:17.620Z,100106.78
2022-11-22T03:17:46.147Z,100105.84
2022-11-22T03:20:13.511Z,100097.44
2022-11-22T03:22:41.153Z,100106.38
2022-11-22T03:25:08.403Z,100108.50
2022-11-22T03:27:38.528Z,100097.03
2022-11-22T03:30:06.621Z,100098.72
2022-11-22T03:32:37.785Z,100101.44
2022-11-22T03:35:07.297Z,100115.41
2022-11-22T03:37:34.499Z,100103.09
2022-11-22T03:40:01.419Z,100106.50
2022-11-22T03:42:28.987Z,100113.41
2022-11-22T03:44:57.606Z,100107.13
2022-11-22T03:47:27.395Z,100105.53
2022-11-22T03:49:54.255Z,100100.28
2022-11-22T03:52:22.930Z,100097.75
2022-11-22T03:54:49.977Z,100099.22
2022-11-22T03:57:17.455Z,100092.53
2022-11-22T03:59:44.396Z,100086.75
2022-11-22T04:02:11.665Z,100084.44
2022-11-22T04:04:38.863Z,100084.53
2022-11-22T04:07:08.273Z,100088.84
2022-11-22T04:09:39.159Z,100087.47
2022-11-22T04:12:06.695Z,100090.50
2022-11-22T04:14:52.344Z,100079.56
2022-11-22T04:17:39.550Z,100078.00
2022-11-22T04:20:36.111Z,100081.69
2022-11-22T04:23:05.139Z,100079.47
2022-11-22T04:25:36.085Z,100084.09
2022-11-22T04:28:06.383Z,100083.97
2022-11-22T04:30:52.039Z,100080.44
2022-11-22T04:33:20.195Z,100089.75
2022-11-22T04:35:47.598Z,100073.38
2022-11-22T04:38:15.709Z,100084.59
2022-11-22T04:40:44.692Z,100084.59
2022-11-22T04:43:38.013Z,100083.97
2022-11-22T04:46:04.972Z,100081.97
2022-11-22T04:48:35.471Z,100075.13
2022-11-22T04:51:21.668Z,100075.13
2022-11-22T04:53:58.882Z,100078.41
2022-11-22T04:56:27.362Z,100081.25
2022-11-22T04:58:54.781Z,100085.84
2022-11-22T05:01:24.523Z,100074.59
2022-11-22T05:03:52.023Z,100078.25
2022-11-22T05:06:18.987Z,100070.53
2022-11-22T05:08:46.266Z,100058.44
2022-11-22T05:11:17.988Z,100054.16
2022-11-22T05:13:46.926Z,100054.16
2022-11-22T05:16:17.808Z,100050.47
2022-11-22T05:18:59.153Z,100056.47
2022-11-22T05:21:28.822Z,100060.53
2022-11-22T05:24:00.735Z,100055.50
2022-11-22T05:26:29.145Z,100058.53
2022-11-22T05:28:58.272Z,100059.19
2022-11-22T05:31:27.640Z,100054.03
2022-11-22T05:33:56.303Z,100041.22
2022-11-22T05:36:24.363Z,100047.00
2022-11-22T05:38:52.212Z,100046.38
2022-11-22T05:41:19.900Z,100038.41
2022-11-22T05:43:47.333Z,100034.13
2022-11-22T05:46:22.556Z,100033.03
2022-11-22T05:48:52.789Z,100031.38
2022-11-22T05:51:23.621Z,100045.13
2022-11-22T05:53:51.080Z,100041.25
2022-11-22T05:56:19.888Z,100048.94
2022-11-22T05:58:47.276Z,100040.44
2022-11-22T06:01:19.087Z,100042.84
2022-11-22T06:03:47.038Z,100033.88
2022-11-22T06:06:15.186Z,100015.38
2022-11-22T06:08:51.953Z,100002.50
2022-11-22T06:11:21.998Z,100006.28
2022-11-22T06:13:51.623Z,100023.03
2022-11-22T06:16:19.940Z,100022.94
2022-11-22T06:18:47.743Z,100023.03
2022-11-22T06:21:17.570Z,100012.66
2022-11-22T06:23:45.534Z,100015.09
2022-11-22T06:26:16.701Z,100006.38
2022-11-22T06:28:44.999Z,100006.78
2022-11-22T06:31:13.792Z,100005.63
2022-11-22T06:33:43.544Z,99976.66
2022-11-22T06:36:12.567Z,99983.56
2022-11-22T06:38:40.869Z,99981.88
2022-11-22T06:41:09.214Z,99985.03
2022-11-22T06:43:43.599Z,99985.31
2022-11-22T06:46:14.322Z,99996.44
2022-11-22T06:48:43.747Z,100001.28
2022-11-22T06:51:12.319Z,99997.03
2022-11-22T06:53:47.461Z,99994.47
2022-11-22T06:56:17.704Z,99999.53
2022-11-22T06:58:46.008Z,100003.03
2022-11-22T07:01:15.257Z,100011.78
2022-11-22T07:03:44.843Z,100009.09
2022-11-22T07:06:13.210Z,99996.53
2022-11-22T07:08:41.318Z,100006.31
2022-11-22T07:11:11.514Z,100019.38
2022-11-22T07:13:39.488Z,100014.97
2022-11-22T07:16:07.793Z,100017.66
2022-11-22T07:18:35.252Z,100019.91
2022-11-22T07:21:10.905Z,100012.84
2022-11-22T07:23:41.291Z,100009.75
2022-11-22T07:26:08.311Z,100007.34
2022-11-22T07:28:35.622Z,100009.75
2022-11-22T07:31:05.293Z,99998.75
2022-11-22T07:33:34.392Z,100001.72
2022-11-22T07:36:06.367Z,99995.00
2022-11-22T07:38:34.592Z,99987.31
2022-11-22T07:41:01.751Z,99983.69
2022-11-22T07:43:29.191Z,99979.56
2022-11-22T07:45:58.785Z,99986.38
2022-11-22T07:48:26.034Z,99976.84
2022-11-22T07:50:53.641Z,99965.56
2022-11-22T07:53:22.407Z,99978.53
2022-11-22T07:55:49.311Z,99910.47
2022-11-22T07:58:16.496Z,99961.63
2022-11-22T08:00:44.007Z,99953.94
2022-11-22T08:03:17.460Z,99931.94
2022-11-22T08:05:45.177Z,99929.59
2022-11-22T08:08:12.663Z,99933.63
2022-11-22T08:10:41.651Z,99913.06
2022-11-22T08:13:17.256Z,99924.72
2022-11-22T08:15:49.427Z,99913.47
2022-11-22T08:18:18.039Z,99908.56
2022-11-22T08:20:45.560Z,99909.09
2022-11-22T08:23:12.887Z,99900.66
2022-11-22T08:25:41.429Z,99900.97
2022-11-22T08:28:08.559Z,99901.03
2022-11-22T08:30:35.452Z,99897.72
2022-11-22T08:33:02.726Z,99886.47
2022-11-22T08:35:29.568Z,99889.28
2022-11-22T08:37:57.185Z,99877.59
2022-11-22T08:40:24.467Z,99882.97
2022-11-22T08:42:55.944Z,99875.75
2022-11-22T08:45:28.366Z,99867.06
2022-11-22T08:47:58.103Z,99870.84
2022-11-22T08:50:25.020Z,99862.50
2022-11-22T08:52:52.312Z,99869.72
2022-11-22T08:55:19.239Z,99867.50
2022-11-22T08:57:47.149Z,99867.25
2022-11-22T09:00:16.824Z,99865.97
2022-11-22T09:02:44.155Z,99861.97
2022-11-22T09:05:12.160Z,99854.31
2022-11-22T09:10:37.211Z,99851.66
2022-11-22T09:13:04.412Z,99852.75
2022-11-22T09:15:32.758Z,99852.50
2022-11-22T09:18:03.297Z,99850.66
2022-11-22T11:03:36.384Z,99666.47
2022-11-22T11:11:54.673Z,99651.03
2022-11-22T11:14:30.049Z,99636.34
2022-11-22T11:16:59.424Z,99639.88
2022-11-22T11:19:34.136Z,99640.38
2022-11-22T11:22:27.130Z,99631.09
2022-11-22T11:25:31.733Z,99621.66
2022-11-22T11:28:05.829Z,99616.69
2022-11-22T11:30:44.284Z,99601.59
2022-11-22T11:33:19.278Z,99597.94
2022-11-22T11:35:48.353Z,99594.13
2022-11-22T11:38:27.386Z,99581.00
2022-11-22T11:40:54.606Z,99588.31
2022-11-22T11:43:23.263Z,99587.97
2022-11-22T11:45:51.518Z,99581.84
2022-11-22T11:48:30.242Z,99573.25
2022-11-22T11:51:11.877Z,99566.78
2022-11-22T11:53:45.497Z,99569.94
2022-11-22T11:56:21.703Z,99572.59
2022-11-22T11:58:54.567Z,99553.50
2022-11-22T12:01:21.732Z,99548.00
2022-11-22T12:03:55.542Z,99538.06
2022-11-22T12:06:28.887Z,99534.06
2022-11-22T12:08:57.193Z,99539.06
2022-11-22T12:11:33.030Z,99524.13
2022-11-22T12:14:19.484Z,99528.13
2022-11-22T12:16:49.626Z,99524.13
2022-11-22T12:19:27.025Z,99506.72
2022-11-22T12:22:00.868Z,99509.53
2022-11-22T12:27:20.436Z,99495.91
2022-11-22T12:29:48.195Z,99492.09
2022-11-22T12:32:19.509Z,99473.97
2022-11-22T12:34:54.314Z,99484.75
2022-11-22T12:37:29.726Z,99473.00
2022-11-22T12:40:01.822Z,99478.78
2022-11-22T12:42:32.267Z,99465.81
2022-11-22T12:45:05.305Z,99470.13
2022-11-22T12:47:39.296Z,99464.34
2022-11-22T12:50:15.179Z,99474.31
2022-11-22T12:52:47.755Z,99475.16
2022-11-22T12:55:19.672Z,99465.00
2022-11-22T12:57:53.006Z,99464.16
2022-11-22T13:00:22.133Z,99449.25
2022-11-22T13:03:00.782Z,99451.72
2022-11-22T13:05:30.468Z,99445.22
2022-11-22T13:08:08.896Z,99443.09
2022-11-22T13:10:40.679Z,99435.75
2022-11-22T13:13:17.073Z,99435.09
2022-11-22T13:15:46.431Z,99434.94
2022-11-22T13:18:16.139Z,99435.94
2022-11-22T13:20:55.740Z,99446.56
2022-11-22T13:23:44.772Z,99432.28
2022-11-22T13:26:21.648Z,99429.13
2022-11-22T13:28:50.133Z,99423.50
2022-11-22T13:31:19.585Z,99425.31
2022-11-22T13:33:56.757Z,99425.31
2022-11-22T13:36:39.133Z,99413.84
2022-11-22T13:39:13.425Z,99407.56
2022-11-22T13:41:52.157Z,99406.88
2022-11-22T13:44:33.830Z,99414.53
2022-11-22T13:47:04.513Z,99419.00
2022-11-22T13:49:39.134Z,99417.69
2022-11-22T13:52:49.848Z,99410.53
2022-11-22T13:55:40.334Z,99424.13
2022-11-22T13:58:52.154Z,99422.81
2022-11-22T14:01:56.866Z,99424.16
2022-11-22T14:04:43.111Z,99427.47
2022-11-22T14:07:37.393Z,99425.16
2022-11-22T14:10:25.886Z,99434.78
2022-11-22T14:13:14.544Z,99433.97
2022-11-22T14:15:49.518Z,99428.31
2022-11-22T14:18:37.759Z,99428.16
2022-11-22T14:21:08.641Z,99435.78
2022-11-22T14:23:50.346Z,99420.53
2022-11-22T14:26:28.326Z,99430.00
2022-11-22T14:29:16.213Z,99415.38
2022-11-22T14:31:53.139Z,99422.34
2022-11-22T14:34:23.077Z,99418.69
2022-11-22T14:37:27.844Z,99429.16
2022-11-22T14:40:02.540Z,99427.00
2022-11-22T14:43:01.788Z,99420.50
2022-11-22T14:45:42.681Z,99420.50
2022-11-22T14:48:30.523Z,99428.63
2022-11-22T14:51:06.578Z,99426.81
2022-11-22T14:53:41.348Z,99427.81
2022-11-22T14:56:16.114Z,99422.66
2022-11-22T14:58:56.578Z,99423.16
2022-11-22T15:01:49.241Z,99425.44
2022-11-22T15:09:11.395Z,99429.91
2022-11-22T15:09:11.521Z,99422.81
2022-11-22T15:11:00.917Z,99432.41
2022-11-22T15:13:47.056Z,99425.59
2022-11-22T15:57:26.635Z,99407.50
2022-11-22T15:59:54.722Z,99399.47
2022-11-22T16:02:25.329Z,99399.84
2022-11-22T16:06:06.424Z,99401.81
2022-11-22T16:07:46.080Z,99396.50
2022-11-22T16:10:21.183Z,99396.16
2022-11-22T16:12:50.411Z,99395.03
2022-11-22T16:15:29.679Z,99376.44
2022-11-22T16:18:08.565Z,99387.19
2022-11-22T16:20:36.374Z,99379.38
2022-11-22T16:23:24.041Z,99380.50
2022-11-22T16:25:55.330Z,99384.25
2022-11-22T16:28:33.947Z,99382.91
2022-11-22T16:31:04.236Z,99371.97
2022-11-22T16:33:31.854Z,99368.59
2022-11-22T16:36:00.396Z,99363.28
2022-11-22T16:38:29.157Z,99369.44
2022-11-22T16:40:59.142Z,99368.53
2022-11-22T16:43:33.280Z,99363.50
2022-11-22T16:46:00.402Z,99360.03
2022-11-22T16:48:33.234Z,99367.13
2022-11-22T16:51:06.079Z,99359.97
2022-11-22T16:53:38.404Z,99361.41
2022-11-22T16:56:07.483Z,99367.84
2022-11-22T16:58:34.719Z,99363.53
2022-11-22T17:01:01.688Z,99363.69
2022-11-22T17:03:33.755Z,99363.03
2022-11-22T17:06:00.821Z,99368.78
2022-11-22T17:08:28.087Z,99350.59
2022-11-22T17:10:56.508Z,99367.28
2022-11-22T17:13:26.613Z,99353.47
2022-11-22T17:15:55.511Z,99352.81
2022-11-22T17:18:22.874Z,99352.66
2022-11-22T17:20:50.069Z,99357.28
2022-11-22T17:23:26.200Z,99347.53
2022-11-22T17:25:53.815Z,99345.16
2022-11-22T17:28:21.097Z,99343.31
2022-11-22T17:30:49.480Z,99340.00
2022-11-22T17:33:16.659Z,99336.22
2022-11-22T17:35:43.689Z,99322.31
2022-11-22T17:38:12.198Z,99326.38
2022-11-22T17:40:39.439Z,99317.91
2022-11-22T17:43:06.569Z,99314.44
2022-11-22T17:45:34.852Z,99313.59
2022-11-22T17:48:03.764Z,99307.66
2022-11-22T17:50:30.607Z,99286.88
2022-11-22T17:52:57.756Z,99301.75
2022-11-22T17:55:32.781Z,99296.69
2022-11-22T17:58:09.925Z,99292.25
2022-11-22T18:00:36.798Z,99295.31
2022-11-22T18:03:08.102Z,99286.13
2022-11-22T18:05:35.719Z,99285.28
2022-11-22T18:08:02.950Z,99290.34
2022-11-22T18:10:29.902Z,99279.91
2022-11-22T18:13:20.311Z,99267.63
2022-11-22T18:15:45.212Z,99279.25
2022-11-22T18:18:33.574Z,99268.81
2022-11-22T18:21:02.628Z,99271.19
2022-11-22T18:23:32.951Z,99271.09
2022-11-22T18:26:23.813Z,99263.16
2022-11-22T18:29:08.649Z,99259.69
2022-11-22T18:31:51.303Z,99274.56
2022-11-22T18:34:21.131Z,99262.50
2022-11-22T18:37:04.365Z,99252.25
2022-11-22T18:39:34.280Z,99280.63
2022-11-22T18:42:02.018Z,99256.34
2022-11-22T18:44:29.310Z,99256.00
2022-11-22T18:46:56.382Z,99244.38
2022-11-22T18:49:25.119Z,99244.38
2022-11-22T18:51:52.068Z,99231.78
2022-11-22T18:54:21.679Z,99217.25
2022-11-22T18:56:48.458Z,99243.41
2022-11-22T18:59:15.751Z,99242.56
2022-11-22T19:01:43.453Z,99240.06
2022-11-22T19:04:13.692Z,99237.81
2022-11-22T19:06:42.372Z,99240.59
2022-11-22T19:09:10.548Z,99225.44
2022-11-22T19:11:37.633Z,99207.31
2022-11-22T19:14:05.288Z,99227.09
2022-11-22T19:16:32.223Z,99222.19
2022-11-22T19:18:59.922Z,99211.16
2022-11-22T19:21:28.562Z,99201.56
2022-11-22T19:23:57.580Z,99216.47
2022-11-22T19:26:26.175Z,99207.53
2022-11-22T19:28:56.016Z,99218.56
2022-11-22T19:31:25.749Z,99208.16
2022-11-22T19:33:53.330Z,99210.47
2022-11-22T19:36:23.503Z,99189.06
2022-11-22T19:38:53.676Z,99202.94
2022-11-22T19:41:23.512Z,99204.75
2022-11-22T19:43:51.648Z,99196.81
2022-11-22T19:46:21.387Z,99206.72
2022-11-22T19:48:51.670Z,99184.75
2022-11-22T19:51:18.960Z,99197.59
2022-11-22T19:53:46.519Z,99187.09
2022-11-22T19:56:15.408Z,99178.63
2022-11-22T19:58:51.079Z,99175.38
2022-11-22T20:01:18.182Z,99185.19
2022-11-22T20:03:45.612Z,99173.25
2022-11-22T20:06:14.152Z,99176.19
2022-11-22T20:08:41.714Z,99180.00
2022-11-22T20:11:11.045Z,99167.31
2022-11-22T20:13:40.053Z,99167.97
2022-11-22T20:16:11.352Z,99162.84
2022-11-22T20:18:38.643Z,99168.13
2022-11-22T20:21:07.606Z,99161.03
2022-11-22T20:23:35.181Z,99159.91
2022-11-22T20:26:02.511Z,99161.56
2022-11-22T20:28:29.975Z,99165.19
2022-11-22T20:31:05.081Z,99148.53
2022-11-22T20:33:35.252Z,99142.69
2022-11-22T20:36:03.767Z,99139.56
2022-11-22T20:38:43.351Z,99139.19
2022-11-22T20:41:12.125Z,99132.63
2022-11-22T20:43:39.897Z,99133.16
2022-11-22T20:46:08.735Z,99127.72
2022-11-22T20:48:38.745Z,99132.69
2022-11-22T20:51:07.653Z,99140.47
2022-11-22T20:53:35.752Z,99129.59
2022-11-22T20:56:03.518Z,99127.72
2022-11-22T20:58:30.974Z,99134.03
2022-11-22T21:01:05.016Z,99126.00
2022-11-22T21:03:33.702Z,99122.91
2022-11-22T21:06:02.887Z,99128.66
2022-11-22T21:08:30.454Z,99128.28
2022-11-22T21:11:05.344Z,99125.69
2022-11-22T21:13:33.261Z,99133.84
2022-11-22T21:16:02.294Z,99132.00
2022-11-22T21:18:30.498Z,99130.41
2022-11-22T21:21:06.688Z,99126.78
2022-11-22T21:23:36.926Z,99125.78
2022-11-22T21:26:05.996Z,99133.88
2022-11-22T21:28:33.779Z,99140.84
2022-11-22T21:31:00.842Z,99125.84
2022-11-22T21:33:35.205Z,99149.41
2022-11-22T21:36:03.899Z,99135.03
2022-11-22T21:38:32.398Z,99121.97
2022-11-22T21:41:17.190Z,99134.69
2022-11-22T21:43:54.799Z,99128.91
2022-11-22T21:46:24.401Z,99129.25
2022-11-22T21:48:54.199Z,99142.13
2022-11-22T21:51:22.416Z,99136.53
2022-11-22T21:53:55.544Z,99129.56
2022-11-22T21:56:29.596Z,99118.47
2022-11-22T21:58:57.522Z,99119.81
2022-11-22T22:01:25.221Z,99123.47
2022-11-22T22:03:53.161Z,99119.50
2022-11-22T22:06:20.364Z,99122.50
2022-11-22T22:08:47.563Z,99112.72
2022-11-22T22:11:16.194Z,99104.25
2022-11-22T22:13:43.348Z,99124.47
2022-11-22T22:16:15.787Z,99101.53
2022-11-22T22:18:43.701Z,99122.31
2022-11-22T22:21:15.057Z,99119.16
2022-11-22T22:23:43.527Z,99110.88
2022-11-22T22:26:13.221Z,99111.47
2022-11-22T22:28:42.832Z,99105.00
2022-11-22T22:31:23.554Z,99089.78
2022-11-22T22:33:53.959Z,99103.50
2022-11-22T22:36:25.790Z,99103.66
2022-11-22T22:38:54.103Z,99104.94
2022-11-22T22:41:21.042Z,99112.72
2022-11-22T22:43:50.126Z,99114.56
2022-11-22T22:46:19.274Z,99115.22
2022-11-22T22:48:47.247Z,99122.00
2022-11-22T22:51:16.070Z,99115.19
2022-11-22T22:53:45.498Z,99124.66
2022-11-22T22:56:13.136Z,99121.84
2022-11-22T22:58:40.441Z,99126.97
2022-11-22T23:01:12.156Z,99127.13
2022-11-22T23:03:39.592Z,99125.47
2022-11-22T23:06:08.365Z,99124.47
2022-11-22T23:08:35.727Z,99123.34
2022-11-22T23:11:04.419Z,99114.75
2022-11-22T23:13:31.632Z,99116.22
2022-11-22T23:15:59.271Z,99122.31
2022-11-22T23:18:28.188Z,99120.00
2022-11-22T23:20:58.724Z,99123.13
2022-11-22T23:23:25.951Z,99126.72
2022-11-22T23:25:53.009Z,99119.31
2022-11-22T23:28:20.234Z,99117.19
2022-11-22T23:30:47.134Z,99108.72
2022-11-22T23:33:14.304Z,99110.56
2022-11-22T23:35:42.558Z,99116.13
2022-11-22T23:38:09.889Z,99109.09
2022-11-22T23:40:36.869Z,99111.22
2022-11-22T23:43:04.230Z,99103.50
2022-11-22T23:45:31.209Z,99095.06
2022-11-22T23:47:58.422Z,99087.28
2022-11-22T23:50:25.403Z,99083.13
2022-11-22T23:52:56.920Z,99076.03
2022-11-22T23:55:24.012Z,99078.06
2022-11-22T23:57:51.101Z,99059.88
